Tulsa International Airport

Airport
ICAO code: 
KTUL
Summary
ICAO Region: 
NAM
Territory: 
Location: 
Tulsa, Oklahoma,
Coordinates: 
Aerial View: 
36° 11' 26.415" N, 95° 53' 21.557" W
Airport LOS: 
Parallel Runway Operation
Metar
Observation
KTUL 020953Z 17003KT 10SM FEW250 09/04 A3006 RMK AO2 SLP175 T00890039 $
Station
Tulsa, Tulsa International Airport
Date/Time
2021-12-02 09:53:00
Wind direction
170°
Wind speed
03 kts
Lowest cloud amount
few clouds
Temperature
8.9°C
Dew point
3.9°C
Humidity
70%
Weather condition
n/a

Description

Tulsa International Airport is a civil-military airport (ANG) located 8 km northeast of the central business district of Tulsa, a city in Tulsa County, Oklahoma.

Climatology

Humid “subtropical” climate (Köppen climate classification Cfa) - characterized by hot, humid summers and cool winters. Significant amounts of precipitation occur in all seasons in most areas. Winter rainfall (and sometimes snowfall) is associated with large storms that the westerlies steer from west to east. Most summer rainfall occurs during thunderstorms.

Runways

Designator Length Width Surface Rops
18R/36L 1860 46 ASP Yes/Yes
8/26 2247 46 CON Yes/Yes
18L/36R 3048 61 CON Yes/Yes
Airport map: 
Aerial View: 

SKYbrary Partners:

Safety knowledge contributed by: